»·PEaware :: BADGR20 KEND-KEND

BADGR20 :: KEND-KEND

FLIGHT INFORMATION

Flight Status: Arrived
Operator: Unknown
More flights by this operator :: More flights under this callsign
Pilot: Andres F. (22223)
Aircraft: BEECH AIRCRAFT T-6A TEXAN
(TEX2)
More flights by this aircraft type
Origin: KEND Vance AFB
United States
Destination: KEND Vance AFB
United States
More flights between these airports :: More routes between these airports
Route: AVK END9
File this flight plan on PilotEdge
Remarks:
Altitude:
(Current/Filed)
null
Speed:
(Current/Filed)
0kts
Departed: 05-Apr-21 11:12 AM
Arrived: 05-Apr-21 11:34 AM
Distance/Time
Traveled:
22nm/0:22
Distance/Time
To Go:
Arrived

Flight Plot

Page will automatically refresh every two minutes.

Flight plan parsing failed; only flown route is shown


Map Options




Map Legend


Flown Route
Filed Route
Departure Airport
Arrival Airport
Navaid (VOR, NDB)
Fix

Horizontal Profiles

Position Reports

Time Latitude Longitude Heading Altitude Ground
Speed
05-Apr-21 10:47 36.333730 -97.909901 0 1291ft 0kts
05-Apr-21 10:48 36.333730 -97.909901 270 1291ft 0kts
05-Apr-21 10:49 36.333730 -97.909901 270 1291ft 0kts
05-Apr-21 10:50 36.333730 -97.909901 270 1291ft 0kts
05-Apr-21 10:51 36.333730 -97.909901 270 1291ft 0kts
05-Apr-21 10:52 36.333730 -97.909901 270 1291ft 0kts
05-Apr-21 10:53 36.333730 -97.909901 270 1291ft 0kts
05-Apr-21 10:54 36.333730 -97.909901 270 1291ft 0kts
05-Apr-21 10:55 36.333730 -97.909901 270 1291ft 0kts
05-Apr-21 10:56 36.333730 -97.909901 270 1291ft 0kts
05-Apr-21 11:00 36.333580 -97.910081 0 1291ft 0kts
05-Apr-21 11:01 36.333580 -97.910081 270 1291ft 0kts
05-Apr-21 11:02 36.333580 -97.910081 270 1291ft 0kts
05-Apr-21 11:03 36.333580 -97.910081 270 1291ft 0kts
05-Apr-21 11:04 36.333580 -97.910081 270 1291ft 0kts
05-Apr-21 11:05 36.333580 -97.910081 270 1291ft 0kts
05-Apr-21 11:06 36.333580 -97.910081 270 1291ft 0kts
05-Apr-21 11:07 36.333580 -97.910081 270 1291ft 0kts
05-Apr-21 11:08 36.333580 -97.910081 270 1291ft 0kts
05-Apr-21 11:09 36.333580 -97.910081 270 1291ft 0kts
05-Apr-21 11:10 36.333473 -97.910603 252 1291ft 6kts
05-Apr-21 11:11 36.354920 -97.910533 1 1840ft 168kts
05-Apr-21 11:12 36.404891 -97.896440 11 4821ft 191kts
05-Apr-21 11:13 36.471014 -97.890388 347 5059ft 244kts
05-Apr-21 11:15 36.540077 -97.894321 354 5965ft 245kts
05-Apr-21 11:16 36.610031 -97.901127 311 5717ft 252kts
05-Apr-21 11:17 36.635114 -97.978172 288 6367ft 234kts
05-Apr-21 11:18 36.656731 -98.059335 288 5985ft 247kts
05-Apr-21 11:19 36.681170 -98.136696 292 4397ft 234kts
05-Apr-21 11:20 36.706116 -98.209043 283 4473ft 219kts
05-Apr-21 11:21 36.721024 -98.281327 282 4419ft 216kts
05-Apr-21 11:22 36.736631 -98.353824 284 4440ft 213kts
05-Apr-21 11:23 36.746027 -98.426548 275 4453ft 211kts
05-Apr-21 11:24 36.751125 -98.499759 274 4462ft 210kts
05-Apr-21 11:25 36.758019 -98.572222 285 4530ft 211kts
05-Apr-21 11:26 36.788319 -98.635160 270 3372ft 177kts
05-Apr-21 11:27 36.756608 -98.649996 232 2583ft 115kts
05-Apr-21 11:28 36.776625 -98.670306 357 1879ft 151kts
05-Apr-21 11:29 36.822705 -98.673303 332 4632ft 186kts
05-Apr-21 11:30 36.877716 -98.668588 5 6994ft 228kts
05-Apr-21 11:31 36.937562 -98.638466 60 7588ft 247kts
05-Apr-21 11:32 36.937740 -98.556000 125 6878ft 259kts
05-Apr-21 11:33 36.907551 -98.486584 108 8275ft 212kts
05-Apr-21 11:34 36.346771 -97.909783 0 1280ft 0kts
05-Apr-21 11:35 36.333580 -97.910081 270 1291ft 0kts
05-Apr-21 11:36 36.333580 -97.910081 270 1291ft 0kts
05-Apr-21 11:37 36.333580 -97.910081 270 1291ft 0kts
05-Apr-21 11:38 36.333580 -97.910081 270 1291ft 0kts
05-Apr-21 11:39 36.780399 -98.668689 270 5773ft 2kts
05-Apr-21 11:40 36.785039 -98.713864 282 2793ft 169kts
05-Apr-21 11:41 36.820263 -98.731873 59 3576ft 221kts
05-Apr-21 11:41 36.796738 -98.675466 133 3596ft 245kts
05-Apr-21 11:43 36.745931 -98.602298 104 5677ft 240kts
05-Apr-21 11:44 36.732487 -98.514737 99 5978ft 255kts
05-Apr-21 11:44 36.722515 -98.439813 101 6029ft 264kts
05-Apr-21 11:46 36.707798 -98.333155 97 6050ft 269kts
05-Apr-21 11:46 36.700088 -98.254537 99 5966ft 270kts
05-Apr-21 11:47 36.688397 -98.161725 97 6025ft 269kts
05-Apr-21 11:48 36.681157 -98.068264 98 6048ft 269kts

Navigation Log

Ident Type
Flight plan parsing failed, navigation log unavailable